sensor_id;sensor_type;location;lat;lon;timestamp;pressure;altitude;pressure_sealevel;temperature;humidity
61018;BME280;48171;51.550;5.434;2022-11-15T00:00:51;100859.47;;;6.91;100.00
61018;BME280;48171;51.550;5.434;2022-11-15T00:03:19;100851.59;;;6.94;100.00
61018;BME280;48171;51.550;5.434;2022-11-15T00:05:44;100852.47;;;6.96;100.00
61018;BME280;48171;51.550;5.434;2022-11-15T00:08:10;100855.13;;;7.00;100.00
61018;BME280;48171;51.550;5.434;2022-11-15T00:10:36;100852.56;;;7.04;100.00
61018;BME280;48171;51.550;5.434;2022-11-15T00:13:12;100861.31;;;7.09;100.00
61018;BME280;48171;51.550;5.434;2022-11-15T00:15:39;100849.97;;;7.11;100.00
61018;BME280;48171;51.550;5.434;2022-11-15T00:18:05;100853.50;;;7.15;100.00
61018;BME280;48171;51.550;5.434;2022-11-15T00:20:33;100849.13;;;7.18;100.00
61018;BME280;48171;51.550;5.434;2022-11-15T00:22:58;100850.91;;;7.19;100.00
61018;BME280;48171;51.550;5.434;2022-11-15T00:25:24;100846.56;;;7.25;100.00
61018;BME280;48171;51.550;5.434;2022-11-15T00:27:49;100844.81;;;7.27;100.00
61018;BME280;48171;51.550;5.434;2022-11-15T00:30:17;100855.38;;;7.31;100.00
61018;BME280;48171;51.550;5.434;2022-11-15T00:32:42;100845.75;;;7.35;100.00
61018;BME280;48171;51.550;5.434;2022-11-15T00:35:07;100844.00;;;7.37;100.00
61018;BME280;48171;51.550;5.434;2022-11-15T00:37:33;100850.19;;;7.42;100.00
61018;BME280;48171;51.550;5.434;2022-11-15T00:39:58;100837.06;;;7.44;100.00
61018;BME280;48171;51.550;5.434;2022-11-15T00:42:23;100841.44;;;7.51;100.00
61018;BME280;48171;51.550;5.434;2022-11-15T00:44:48;100843.22;;;7.55;100.00
61018;BME280;48171;51.550;5.434;2022-11-15T00:47:14;100838.03;;;7.59;100.00
61018;BME280;48171;51.550;5.434;2022-11-15T00:49:39;100834.50;;;7.62;100.00
61018;BME280;48171;51.550;5.434;2022-11-15T00:52:06;100833.66;;;7.65;100.00
61018;BME280;48171;51.550;5.434;2022-11-15T00:54:31;100825.75;;;7.65;100.00
61018;BME280;48171;51.550;5.434;2022-11-15T00:56:56;100837.16;;;7.71;100.00
61018;BME280;48171;51.550;5.434;2022-11-15T00:59:21;100823.16;;;7.75;100.00
61018;BME280;48171;51.550;5.434;2022-11-15T01:01:47;100817.94;;;7.80;100.00
61018;BME280;48171;51.550;5.434;2022-11-15T01:04:12;100827.59;;;7.84;100.00
61018;BME280;48171;51.550;5.434;2022-11-15T01:06:37;100817.06;;;7.87;100.00
61018;BME280;48171;51.550;5.434;2022-11-15T01:09:02;100821.47;;;7.91;100.00
61018;BME280;48171;51.550;5.434;2022-11-15T01:11:28;100818.00;;;7.94;100.00
61018;BME280;48171;51.550;5.434;2022-11-15T01:13:54;100818.88;;;7.97;100.00
61018;BME280;48171;51.550;5.434;2022-11-15T01:16:20;100816.25;;;7.99;100.00
61018;BME280;48171;51.550;5.434;2022-11-15T01:18:45;100811.88;;;8.01;100.00
61018;BME280;48171;51.550;5.434;2022-11-15T01:21:14;100812.75;;;8.05;100.00
61018;BME280;48171;51.550;5.434;2022-11-15T01:23:40;100809.25;;;8.07;100.00
61018;BME280;48171;51.550;5.434;2022-11-15T01:26:09;100811.88;;;8.09;100.00
61018;BME280;48171;51.550;5.434;2022-11-15T01:28:36;100810.13;;;8.11;100.00
61018;BME280;48171;51.550;5.434;2022-11-15T01:31:05;100801.38;;;8.09;100.00
61018;BME280;48171;51.550;5.434;2022-11-15T01:33:30;100797.00;;;8.12;100.00
61018;BME280;48171;51.550;5.434;2022-11-15T01:35:56;100793.47;;;8.15;100.00
61018;BME280;48171;51.550;5.434;2022-11-15T01:38:22;100787.34;;;8.14;100.00
61018;BME280;48171;51.550;5.434;2022-11-15T01:40:48;100796.09;;;8.18;100.00
61018;BME280;48171;51.550;5.434;2022-11-15T01:45:52;100797.91;;;8.22;100.00
61018;BME280;48171;51.550;5.434;2022-11-15T01:48:22;100795.25;;;8.25;100.00
61018;BME280;48171;51.550;5.434;2022-11-15T01:50:50;100794.38;;;8.25;100.00
61018;BME280;48171;51.550;5.434;2022-11-15T01:53:17;100804.06;;;8.30;100.00
61018;BME280;48171;51.550;5.434;2022-11-15T01:55:44;100793.50;;;8.33;100.00
61018;BME280;48171;51.550;5.434;2022-11-15T01:58:09;100790.91;;;8.36;100.00
61018;BME280;48171;51.550;5.434;2022-11-15T02:00:35;100792.66;;;8.42;100.00
61018;BME280;48171;51.550;5.434;2022-11-15T02:03:01;100791.81;;;8.43;100.00
61018;BME280;48171;51.550;5.434;2022-11-15T02:05:27;100790.94;;;8.47;100.00
61018;BME280;48171;51.550;5.434;2022-11-15T02:07:52;100789.16;;;8.49;100.00
61018;BME280;48171;51.550;5.434;2022-11-15T02:10:21;100788.28;;;8.52;100.00
61018;BME280;48171;51.550;5.434;2022-11-15T02:12:46;100777.78;;;8.55;100.00
61018;BME280;48171;51.550;5.434;2022-11-15T02:15:12;100771.63;;;8.59;100.00
61018;BME280;48171;51.550;5.434;2022-11-15T02:18:04;100768.13;;;8.63;100.00
61018;BME280;48171;51.550;5.434;2022-11-15T02:23:21;100771.63;;;8.70;100.00
61018;BME280;48171;51.550;5.434;2022-11-15T02:26:07;100766.34;;;8.73;100.00
61018;BME280;48171;51.550;5.434;2022-11-15T02:28:44;100764.59;;;8.75;100.00
61018;BME280;48171;51.550;5.434;2022-11-15T02:34:03;100767.22;;;8.86;100.00
61018;BME280;48171;51.550;5.434;2022-11-15T02:36:39;100758.44;;;8.85;100.00
61018;BME280;48171;51.550;5.434;2022-11-15T02:42:02;100762.81;;;8.94;100.00
61018;BME280;48171;51.550;5.434;2022-11-15T02:44:36;100757.53;;;8.97;100.00
61018;BME280;48171;51.550;5.434;2022-11-15T02:47:06;100760.16;;;9.00;100.00
61018;BME280;48171;51.550;5.434;2022-11-15T02:49:48;100753.13;;;9.02;100.00
61018;BME280;48171;51.550;5.434;2022-11-15T02:52:16;100750.50;;;9.04;100.00
61018;BME280;48171;51.550;5.434;2022-11-15T02:54:41;100748.72;;;9.04;100.00
61018;BME280;48171;51.550;5.434;2022-11-15T02:57:12;100743.47;;;9.07;100.00
61018;BME280;48171;51.550;5.434;2022-11-15T03:02:46;100740.81;;;9.13;100.00
61018;BME280;48171;51.550;5.434;2022-11-15T03:05:40;100740.78;;;9.16;100.00
61018;BME280;48171;51.550;5.434;2022-11-15T03:10:46;100739.03;;;9.18;100.00
61018;BME280;48171;51.550;5.434;2022-11-15T03:13:24;100734.66;;;9.19;100.00
61018;BME280;48171;51.550;5.434;2022-11-15T03:16:00;100734.66;;;9.19;100.00
61018;BME280;48171;51.550;5.434;2022-11-15T03:18:48;100736.41;;;9.21;100.00
61018;BME280;48171;51.550;5.434;2022-11-15T03:21:15;100742.53;;;9.20;100.00
61018;BME280;48171;51.550;5.434;2022-11-15T03:23:42;100740.78;;;9.24;100.00
61018;BME280;48171;51.550;5.434;2022-11-15T03:26:09;100737.25;;;9.27;100.00
61018;BME280;48171;51.550;5.434;2022-11-15T03:28:43;100739.88;;;9.27;100.00
61018;BME280;48171;51.550;5.434;2022-11-15T03:31:12;100737.25;;;9.30;100.00
61018;BME280;48171;51.550;5.434;2022-11-15T03:33:58;100740.75;;;9.32;100.00
61018;BME280;48171;51.550;5.434;2022-11-15T03:36:26;100736.34;;;9.32;100.00
61018;BME280;48171;51.550;5.434;2022-11-15T03:38:57;100735.47;;;9.32;100.00
61018;BME280;48171;51.550;5.434;2022-11-15T03:41:30;100731.97;;;9.31;100.00
61018;BME280;48171;51.550;5.434;2022-11-15T03:44:05;100738.97;;;9.40;100.00
61018;BME280;48171;51.550;5.434;2022-11-15T03:46:40;100740.69;;;9.41;100.00
61018;BME280;48171;51.550;5.434;2022-11-15T03:49:12;100739.81;;;9.40;100.00
61018;BME280;48171;51.550;5.434;2022-11-15T03:51:39;100741.56;;;9.43;100.00
61018;BME280;48171;51.550;5.434;2022-11-15T03:54:05;100738.06;;;9.44;100.00
61018;BME280;48171;51.550;5.434;2022-11-15T03:56:30;100739.81;;;9.45;100.00
61018;BME280;48171;51.550;5.434;2022-11-15T03:58:56;100738.94;;;9.48;100.00
61018;BME280;48171;51.550;5.434;2022-11-15T04:01:21;100739.81;;;9.48;100.00
61018;BME280;48171;51.550;5.434;2022-11-15T04:03:46;100735.41;;;9.50;100.00
61018;BME280;48171;51.550;5.434;2022-11-15T04:06:12;100740.66;;;9.55;100.00
61018;BME280;48171;51.550;5.434;2022-11-15T04:08:37;100736.28;;;9.54;100.00
61018;BME280;48171;51.550;5.434;2022-11-15T04:11:02;100744.16;;;9.57;100.00
61018;BME280;48171;51.550;5.434;2022-11-15T04:13:27;100732.72;;;9.58;100.00
61018;BME280;48171;51.550;5.434;2022-11-15T04:15:53;100733.59;;;9.58;100.00
61018;BME280;48171;51.550;5.434;2022-11-15T04:18:18;100728.31;;;9.60;100.00
61018;BME280;48171;51.550;5.434;2022-11-15T04:20:43;100729.19;;;9.59;100.00
61018;BME280;48171;51.550;5.434;2022-11-15T04:23:27;100730.97;;;9.60;100.00
61018;BME280;48171;51.550;5.434;2022-11-15T04:26:14;100736.25;;;9.61;100.00
61018;BME280;48171;51.550;5.434;2022-11-15T04:28:40;100734.47;;;9.62;100.00
61018;BME280;48171;51.550;5.434;2022-11-15T04:31:26;100732.69;;;9.63;100.00
61018;BME280;48171;51.550;5.434;2022-11-15T04:33:52;100726.56;;;9.62;100.00
61018;BME280;48171;51.550;5.434;2022-11-15T04:36:17;100730.06;;;9.66;100.00
61018;BME280;48171;51.550;5.434;2022-11-15T04:39:02;100726.56;;;9.64;100.00
61018;BME280;48171;51.550;5.434;2022-11-15T04:41:27;100730.94;;;9.65;100.00
61018;BME280;48171;51.550;5.434;2022-11-15T04:43:54;100730.94;;;9.63;100.00
61018;BME280;48171;51.550;5.434;2022-11-15T04:46:20;100742.34;;;9.68;100.00
61018;BME280;48171;51.550;5.434;2022-11-15T04:48:45;100740.63;;;9.66;100.00
61018;BME280;48171;51.550;5.434;2022-11-15T04:51:11;100744.09;;;9.72;100.00
61018;BME280;48171;51.550;5.434;2022-11-15T04:53:36;100739.69;;;9.73;100.00
61018;BME280;48171;51.550;5.434;2022-11-15T04:56:01;100737.03;;;9.73;100.00
61018;BME280;48171;51.550;5.434;2022-11-15T04:58:26;100734.41;;;9.71;100.00
61018;BME280;48171;51.550;5.434;2022-11-15T05:00:52;100727.38;;;9.72;100.00
61018;BME280;48171;51.550;5.434;2022-11-15T05:03:17;100725.63;;;9.72;100.00
61018;BME280;48171;51.550;5.434;2022-11-15T05:06:01;100736.19;;;9.74;100.00
61018;BME280;48171;51.550;5.434;2022-11-15T05:08:27;100722.97;;;9.74;100.00
61018;BME280;48171;51.550;5.434;2022-11-15T05:10:52;100721.22;;;9.73;100.00
61018;BME280;48171;51.550;5.434;2022-11-15T05:13:17;100727.34;;;9.76;100.00
61018;BME280;48171;51.550;5.434;2022-11-15T05:15:43;100729.09;;;9.77;100.00
61018;BME280;48171;51.550;5.434;2022-11-15T05:18:08;100730.81;;;9.85;100.00
61018;BME280;48171;51.550;5.434;2022-11-15T05:20:33;100729.06;;;9.85;100.00
61018;BME280;48171;51.550;5.434;2022-11-15T05:22:59;100723.78;;;9.85;100.00
61018;BME280;48171;51.550;5.434;2022-11-15T05:25:24;100724.69;;;9.81;100.00
61018;BME280;48171;51.550;5.434;2022-11-15T05:27:49;100722.91;;;9.83;100.00
61018;BME280;48171;51.550;5.434;2022-11-15T05:30:15;100721.16;;;9.82;100.00
61018;BME280;48171;51.550;5.434;2022-11-15T05:32:41;100722.03;;;9.82;100.00
61018;BME280;48171;51.550;5.434;2022-11-15T05:35:08;100722.91;;;9.83;100.00
61018;BME280;48171;51.550;5.434;2022-11-15T05:37:37;100721.13;;;9.84;100.00
61018;BME280;48171;51.550;5.434;2022-11-15T05:40:02;100719.41;;;9.84;100.00
61018;BME280;48171;51.550;5.434;2022-11-15T05:42:27;100719.41;;;9.84;100.00
61018;BME280;48171;51.550;5.434;2022-11-15T05:44:54;100715.88;;;9.84;100.00
61018;BME280;48171;51.550;5.434;2022-11-15T05:47:22;100710.59;;;9.84;100.00
61018;BME280;48171;51.550;5.434;2022-11-15T05:49:51;100710.63;;;9.82;100.00
61018;BME280;48171;51.550;5.434;2022-11-15T05:52:22;100713.22;;;9.85;100.00
61018;BME280;48171;51.550;5.434;2022-11-15T05:54:50;100717.63;;;9.83;100.00
61018;BME280;48171;51.550;5.434;2022-11-15T05:57:16;100713.25;;;9.80;100.00
61018;BME280;48171;51.550;5.434;2022-11-15T05:59:41;100723.81;;;9.82;100.00
61018;BME280;48171;51.550;5.434;2022-11-15T06:02:09;100729.09;;;9.82;100.00
61018;BME280;48171;51.550;5.434;2022-11-15T06:04:34;100732.59;;;9.86;100.00
61018;BME280;48171;51.550;5.434;2022-11-15T06:06:59;100736.09;;;9.86;100.00
61018;BME280;48171;51.550;5.434;2022-11-15T06:09:24;100738.75;;;9.86;100.00
61018;BME280;48171;51.550;5.434;2022-11-15T06:11:50;100735.19;;;9.87;100.00
61018;BME280;48171;51.550;5.434;2022-11-15T06:14:15;100735.19;;;9.89;100.00
61018;BME280;48171;51.550;5.434;2022-11-15T06:16:40;100730.81;;;9.86;100.00
61018;BME280;48171;51.550;5.434;2022-11-15T06:19:06;100735.19;;;9.89;100.00
61018;BME280;48171;51.550;5.434;2022-11-15T06:21:32;100734.28;;;9.91;100.00
61018;BME280;48171;51.550;5.434;2022-11-15T06:23:57;100737.84;;;9.90;100.00
61018;BME280;48171;51.550;5.434;2022-11-15T06:26:22;100746.63;;;9.92;100.00
61018;BME280;48171;51.550;5.434;2022-11-15T06:28:47;100748.38;;;9.92;100.00
61018;BME280;48171;51.550;5.434;2022-11-15T06:31:13;100746.63;;;9.94;100.00
61018;BME280;48171;51.550;5.434;2022-11-15T06:33:39;100749.22;;;9.95;100.00
61018;BME280;48171;51.550;5.434;2022-11-15T06:36:10;100744.84;;;9.96;100.00
61018;BME280;48171;51.550;5.434;2022-11-15T06:38:38;100744.84;;;9.96;100.00
61018;BME280;48171;51.550;5.434;2022-11-15T06:41:06;100752.72;;;9.97;100.00
61018;BME280;48171;51.550;5.434;2022-11-15T06:43:32;100751.88;;;9.97;100.00
61018;BME280;48171;51.550;5.434;2022-11-15T06:45:58;100746.59;;;9.97;100.00
61018;BME280;48171;51.550;5.434;2022-11-15T06:48:24;100751.88;;;9.95;100.00
61018;BME280;48171;51.550;5.434;2022-11-15T06:50:53;100765.97;;;9.96;100.00
61018;BME280;48171;51.550;5.434;2022-11-15T06:53:18;100760.69;;;9.96;100.00
61018;BME280;48171;51.550;5.434;2022-11-15T06:55:43;100767.69;;;9.95;100.00
61018;BME280;48171;51.550;5.434;2022-11-15T06:58:09;100757.19;;;9.92;100.00
61018;BME280;48171;51.550;5.434;2022-11-15T07:00:34;100773.88;;;9.94;100.00
61018;BME280;48171;51.550;5.434;2022-11-15T07:03:00;100761.59;;;9.92;100.00
61018;BME280;48171;51.550;5.434;2022-11-15T07:05:26;100768.59;;;9.91;100.00
61018;BME280;48171;51.550;5.434;2022-11-15T07:07:52;100774.78;;;9.92;100.00
61018;BME280;48171;51.550;5.434;2022-11-15T07:10:18;100775.66;;;9.91;100.00
61018;BME280;48171;51.550;5.434;2022-11-15T07:12:47;100780.06;;;9.90;100.00
61018;BME280;48171;51.550;5.434;2022-11-15T07:15:12;100772.16;;;9.89;100.00
61018;BME280;48171;51.550;5.434;2022-11-15T07:17:38;100787.09;;;9.90;100.00
61018;BME280;48171;51.550;5.434;2022-11-15T07:20:03;100780.06;;;9.89;100.00
61018;BME280;48171;51.550;5.434;2022-11-15T07:22:29;100782.72;;;9.86;100.00
61018;BME280;48171;51.550;5.434;2022-11-15T07:24:54;100784.47;;;9.87;100.00
61018;BME280;48171;51.550;5.434;2022-11-15T07:27:19;100785.34;;;9.89;100.00
61018;BME280;48171;51.550;5.434;2022-11-15T07:29:44;100778.28;;;9.89;100.00
61018;BME280;48171;51.550;5.434;2022-11-15T07:32:10;100780.06;;;9.87;100.00
61018;BME280;48171;51.550;5.434;2022-11-15T07:34:35;100780.97;;;9.86;100.00
61018;BME280;48171;51.550;5.434;2022-11-15T07:37:00;100783.56;;;9.89;100.00
61018;BME280;48171;51.550;5.434;2022-11-15T07:39:26;100779.16;;;9.91;100.00
61018;BME280;48171;51.550;5.434;2022-11-15T07:41:51;100767.72;;;9.89;100.00
61018;BME280;48171;51.550;5.434;2022-11-15T07:44:36;100767.72;;;9.89;100.00
61018;BME280;48171;51.550;5.434;2022-11-15T07:47:01;100767.72;;;9.89;100.00
61018;BME280;48171;51.550;5.434;2022-11-15T07:49:27;100768.63;;;9.90;100.00
61018;BME280;48171;51.550;5.434;2022-11-15T07:51:52;100769.50;;;9.89;100.00
61018;BME280;48171;51.550;5.434;2022-11-15T07:54:17;100766.88;;;9.89;100.00
61018;BME280;48171;51.550;5.434;2022-11-15T07:56:42;100757.22;;;9.83;100.00
61018;BME280;48171;51.550;5.434;2022-11-15T07:59:08;100769.50;;;9.92;100.00
61018;BME280;48171;51.550;5.434;2022-11-15T08:01:33;100773.00;;;9.92;100.00
61018;BME280;48171;51.550;5.434;2022-11-15T08:03:58;100771.25;;;9.94;100.00
61018;BME280;48171;51.550;5.434;2022-11-15T08:06:23;100773.88;;;9.93;100.00
61018;BME280;48171;51.550;5.434;2022-11-15T08:08:49;100780.03;;;9.93;100.00
61018;BME280;48171;51.550;5.434;2022-11-15T08:11:14;100785.31;;;9.95;100.00
61018;BME280;48171;51.550;5.434;2022-11-15T08:13:39;100780.91;;;9.95;100.00
61018;BME280;48171;51.550;5.434;2022-11-15T08:16:04;100787.03;;;9.97;100.00
61018;BME280;48171;51.550;5.434;2022-11-15T08:18:30;100792.31;;;9.99;100.00
61018;BME280;48171;51.550;5.434;2022-11-15T08:20:59;100782.66;;;9.98;100.00
61018;BME280;48171;51.550;5.434;2022-11-15T08:23:24;100777.38;;;9.98;100.00
61018;BME280;48171;51.550;5.434;2022-11-15T08:25:50;100767.69;;;9.95;100.00
61018;BME280;48171;51.550;5.434;2022-11-15T08:28:16;100780.06;;;9.90;100.00
61018;BME280;48171;51.550;5.434;2022-11-15T08:30:42;100780.06;;;9.90;100.00
61018;BME280;48171;51.550;5.434;2022-11-15T08:33:11;100779.19;;;9.90;100.00
61018;BME280;48171;51.550;5.434;2022-11-15T08:35:37;100764.25;;;9.86;100.00
61018;BME280;48171;51.550;5.434;2022-11-15T08:38:02;100774.78;;;9.87;100.00
61018;BME280;48171;51.550;5.434;2022-11-15T08:40:28;100764.25;;;9.81;100.00
61018;BME280;48171;51.550;5.434;2022-11-15T08:42:53;100763.41;;;9.82;100.00
61018;BME280;48171;51.550;5.434;2022-11-15T08:45:18;100765.13;;;9.85;100.00
61018;BME280;48171;51.550;5.434;2022-11-15T08:47:44;100755.44;;;9.84;100.00
61018;BME280;48171;51.550;5.434;2022-11-15T08:50:09;100754.56;;;9.85;100.00
61018;BME280;48171;51.550;5.434;2022-11-15T08:52:34;100749.28;;;9.86;100.00
61018;BME280;48171;51.550;5.434;2022-11-15T08:55:00;100744.03;;;9.86;100.00
61018;BME280;48171;51.550;5.434;2022-11-15T08:57:28;100746.66;;;9.86;100.00
61018;BME280;48171;51.550;5.434;2022-11-15T08:59:55;100745.78;;;9.86;100.00
61018;BME280;48171;51.550;5.434;2022-11-15T09:02:20;100752.78;;;9.91;100.00
61018;BME280;48171;51.550;5.434;2022-11-15T09:04:45;100747.50;;;9.93;100.00
61018;BME280;48171;51.550;5.434;2022-11-15T09:07:11;100741.31;;;9.95;100.00
61018;BME280;48171;51.550;5.434;2022-11-15T09:09:37;100738.66;;;9.97;100.00
61018;BME280;48171;51.550;5.434;2022-11-15T09:12:03;100727.25;;;9.98;100.00
61018;BME280;48171;51.550;5.434;2022-11-15T09:14:29;100723.69;;;10.00;100.00
61018;BME280;48171;51.550;5.434;2022-11-15T09:16:54;100728.06;;;10.05;100.00
61018;BME280;48171;51.550;5.434;2022-11-15T09:19:20;100717.50;;;10.05;100.00
61018;BME280;48171;51.550;5.434;2022-11-15T09:21:45;100709.59;;;10.03;100.00
61018;BME280;48171;51.550;5.434;2022-11-15T09:24:10;100713.09;;;10.05;100.00
61018;BME280;48171;51.550;5.434;2022-11-15T09:26:36;100709.59;;;10.06;100.00
61018;BME280;48171;51.550;5.434;2022-11-15T09:29:01;100714.81;;;10.09;100.00
61018;BME280;48171;51.550;5.434;2022-11-15T09:31:27;100718.34;;;10.10;100.00
61018;BME280;48171;51.550;5.434;2022-11-15T09:33:52;100713.06;;;10.10;100.00
61018;BME280;48171;51.550;5.434;2022-11-15T09:36:18;100720.06;;;10.17;100.00
61018;BME280;48171;51.550;5.434;2022-11-15T09:38:43;100705.94;;;10.23;100.00
61018;BME280;48171;51.550;5.434;2022-11-15T09:46:30;100712.94;;;10.34;100.00
61018;BME280;48171;51.550;5.434;2022-11-15T09:49:00;100701.47;;;10.28;100.00
61018;BME280;48171;51.550;5.434;2022-11-15T09:51:44;100712.06;;;10.31;100.00
61018;BME280;48171;51.550;5.434;2022-11-15T09:54:29;100707.66;;;10.30;100.00
61018;BME280;48171;51.550;5.434;2022-11-15T09:57:16;100701.50;;;10.31;100.00
61018;BME280;48171;51.550;5.434;2022-11-15T10:00:15;100708.50;;;10.35;100.00
61018;BME280;48171;51.550;5.434;2022-11-15T10:05:57;100692.66;;;10.33;100.00
61018;BME280;48171;51.550;5.434;2022-11-15T10:08:40;100692.66;;;10.33;100.00
61018;BME280;48171;51.550;5.434;2022-11-15T10:11:09;100697.09;;;10.33;100.00
61018;BME280;48171;51.550;5.434;2022-11-15T10:13:37;100694.44;;;10.34;98.73
61018;BME280;48171;51.550;5.434;2022-11-15T10:19:15;100687.31;;;10.41;98.72
61018;BME280;48171;51.550;5.434;2022-11-15T10:24:50;100689.97;;;10.43;94.90
61018;BME280;48171;51.550;5.434;2022-11-15T10:27:18;100692.63;;;10.38;95.93
61018;BME280;48171;51.550;5.434;2022-11-15T10:29:48;100682.97;;;10.34;93.85
61018;BME280;48171;51.550;5.434;2022-11-15T10:32:18;100680.38;;;10.32;93.81
61018;BME280;48171;51.550;5.434;2022-11-15T10:34:45;100676.84;;;10.29;93.27
61018;BME280;48171;51.550;5.434;2022-11-15T10:37:10;100667.16;;;10.28;92.24
61018;BME280;48171;51.550;5.434;2022-11-15T10:39:36;100660.13;;;10.30;93.07
61018;BME280;48171;51.550;5.434;2022-11-15T10:42:30;100661.84;;;10.35;92.62
61018;BME280;48171;51.550;5.434;2022-11-15T10:44:55;100648.63;;;10.38;92.67
61018;BME280;48171;51.550;5.434;2022-11-15T10:47:22;100653.88;;;10.40;91.44
61018;BME280;48171;51.550;5.434;2022-11-15T10:49:57;100638.88;;;10.44;91.21
61018;BME280;48171;51.550;5.434;2022-11-15T10:52:23;100646.78;;;10.44;90.70
61018;BME280;48171;51.550;5.434;2022-11-15T10:54:54;100645.03;;;10.44;91.07
61018;BME280;48171;51.550;5.434;2022-11-15T10:57:24;100653.78;;;10.48;90.45
61018;BME280;48171;51.550;5.434;2022-11-15T10:59:54;100641.47;;;10.48;91.04
61018;BME280;48171;51.550;5.434;2022-11-15T11:02:35;100642.28;;;10.55;90.44
61018;BME280;48171;51.550;5.434;2022-11-15T11:05:04;100627.31;;;10.57;89.77
61018;BME280;48171;51.550;5.434;2022-11-15T11:07:32;100630.78;;;10.60;90.95
61018;BME280;48171;51.550;5.434;2022-11-15T11:10:19;100621.09;;;10.61;89.83
61018;BME280;48171;51.550;5.434;2022-11-15T11:12:45;100622.75;;;10.70;91.87
61018;BME280;48171;51.550;5.434;2022-11-15T11:15:13;100620.03;;;10.74;90.86
61018;BME280;48171;51.550;5.434;2022-11-15T11:18:07;100611.19;;;10.78;90.27
61018;BME280;48171;51.550;5.434;2022-11-15T11:20:45;100602.38;;;10.81;90.27
61018;BME280;48171;51.550;5.434;2022-11-15T11:23:38;100604.09;;;10.84;90.42
61018;BME280;48171;51.550;5.434;2022-11-15T11:26:35;100592.59;;;10.86;90.13
61018;BME280;48171;51.550;5.434;2022-11-15T11:29:31;100589.94;;;10.89;89.71
61018;BME280;48171;51.550;5.434;2022-11-15T11:32:05;100584.66;;;10.88;87.89
61018;BME280;48171;51.550;5.434;2022-11-15T11:37:49;100570.50;;;10.92;88.63
61018;BME280;48171;51.550;5.434;2022-11-15T11:40:27;100572.22;;;10.94;89.33
61018;BME280;48171;51.550;5.434;2022-11-15T11:43:13;100560.78;;;10.97;88.46
61018;BME280;48171;51.550;5.434;2022-11-15T11:46:00;100558.06;;;11.01;88.88
61018;BME280;48171;51.550;5.434;2022-11-15T11:48:40;100558.84;;;11.07;87.78
61018;BME280;48171;51.550;5.434;2022-11-15T11:51:16;100549.97;;;11.12;87.38
61018;BME280;48171;51.550;5.434;2022-11-15T11:56:44;100539.25;;;11.23;87.01
61018;BME280;48171;51.550;5.434;2022-11-15T11:59:18;100525.97;;;11.26;85.88
61018;BME280;48171;51.550;5.434;2022-11-15T12:01:45;100513.59;;;11.28;85.78
61018;BME280;48171;51.550;5.434;2022-11-15T12:06:45;100521.50;;;11.30;85.24
61018;BME280;48171;51.550;5.434;2022-11-15T12:09:18;100510.88;;;11.33;84.65
61018;BME280;48171;51.550;5.434;2022-11-15T12:12:04;100501.13;;;11.35;83.72
61018;BME280;48171;51.550;5.434;2022-11-15T12:14:45;100494.06;;;11.37;84.68
61018;BME280;48171;51.550;5.434;2022-11-15T12:17:12;100500.19;;;11.40;85.33
61018;BME280;48171;51.550;5.434;2022-11-15T12:19:39;100495.72;;;11.44;83.83
61018;BME280;48171;51.550;5.434;2022-11-15T12:22:23;100493.91;;;11.48;85.24
61018;BME280;48171;51.550;5.434;2022-11-15T12:24:55;100492.97;;;11.50;84.17
61018;BME280;48171;51.550;5.434;2022-11-15T12:30:15;100482.31;;;11.55;85.58
61018;BME280;48171;51.550;5.434;2022-11-15T12:32:58;100476.09;;;11.57;84.10
61018;BME280;48171;51.550;5.434;2022-11-15T12:35:27;100464.63;;;11.57;83.87
61018;BME280;48171;51.550;5.434;2022-11-15T12:37:57;100461.19;;;11.53;81.73
61018;BME280;48171;51.550;5.434;2022-11-15T12:40:26;100462.06;;;11.52;82.74
61018;BME280;48171;51.550;5.434;2022-11-15T12:43:02;100455.91;;;11.52;82.40
61018;BME280;48171;51.550;5.434;2022-11-15T12:45:34;100459.50;;;11.49;82.66
61018;BME280;48171;51.550;5.434;2022-11-15T12:58:55;100427.75;;;11.49;83.64
61018;BME280;48171;51.550;5.434;2022-11-15T13:04:28;100421.66;;;11.44;82.03
61018;BME280;48171;51.550;5.434;2022-11-15T13:11:58;100404.84;;;11.45;79.99
61018;BME280;48171;51.550;5.434;2022-11-15T13:19:52;100393.38;;;11.48;79.09
61018;BME280;48171;51.550;5.434;2022-11-15T13:22:18;100387.16;;;11.49;79.61
61018;BME280;48171;51.550;5.434;2022-11-15T13:25:02;100376.59;;;11.49;79.33
61018;BME280;48171;51.550;5.434;2022-11-15T13:27:28;100383.63;;;11.50;80.59
61018;BME280;48171;51.550;5.434;2022-11-15T13:29:54;100381.84;;;11.52;80.68
61018;BME280;48171;51.550;5.434;2022-11-15T13:32:19;100381.81;;;11.53;80.25
61018;BME280;48171;51.550;5.434;2022-11-15T13:34:46;100386.16;;;11.57;80.41
61018;BME280;48171;51.550;5.434;2022-11-15T13:37:28;100370.19;;;11.60;81.79
61018;BME280;48171;51.550;5.434;2022-11-15T13:39:54;100363.97;;;11.63;80.34
61018;BME280;48171;51.550;5.434;2022-11-15T13:42:20;100368.34;;;11.66;80.15
61018;BME280;48171;51.550;5.434;2022-11-15T13:45:03;100361.19;;;11.69;81.04
61018;BME280;48171;51.550;5.434;2022-11-15T13:47:29;100349.75;;;11.69;81.60
61018;BME280;48171;51.550;5.434;2022-11-15T13:49:59;100352.41;;;11.67;80.93
61018;BME280;48171;51.550;5.434;2022-11-15T13:52:30;100345.31;;;11.69;81.35
61018;BME280;48171;51.550;5.434;2022-11-15T13:55:14;100340.09;;;11.66;80.74
61018;BME280;48171;51.550;5.434;2022-11-15T13:57:54;100330.41;;;11.65;80.69
61018;BME280;48171;51.550;5.434;2022-11-15T14:00:43;100326.91;;;11.65;81.46
61018;BME280;48171;51.550;5.434;2022-11-15T14:03:24;100323.41;;;11.63;81.13
61018;BME280;48171;51.550;5.434;2022-11-15T14:06:11;100322.53;;;11.62;81.24
61018;BME280;48171;51.550;5.434;2022-11-15T14:11:21;100307.66;;;11.56;81.04